Time;durP1;ratioP1;P1;durP2;ratioP2;P2;SDS_P1;SDS_P2;PMS_P1;PMS_P2;Temp;Humidity;BMP_temperature;BMP_pressure;BME280_temperature;BME280_humidity;BME280_pressure;Samples;Min_cycle;Max_cycle;Signal;HPM_P1;HPM_P2
2023/03/05 00:00:07;;;;;;;6.40;1.75;;;4.00;99.90;;;;;;5074382;28;20036;-72
2023/03/05 00:02:33;;;;;;;5.07;1.67;;;4.00;99.90;;;;;;5074241;28;20039;-71
2023/03/05 00:04:58;;;;;;;9.80;2.10;;;4.00;99.90;;;;;;5074032;28;20504;-71
2023/03/05 00:07:24;;;;;;;5.80;1.85;;;3.90;99.90;;;;;;5056170;28;20399;-72
2023/03/05 00:09:49;;;;;;;6.15;1.25;;;4.00;99.90;;;;;;5074070;28;20041;-72
2023/03/05 00:12:16;;;;;;;5.40;1.50;;;4.00;99.90;;;;;;5074397;28;20044;-72
2023/03/05 00:14:41;;;;;;;6.85;1.60;;;4.00;99.90;;;;;;5055899;28;20068;-71
2023/03/05 00:17:07;;;;;;;6.18;1.83;;;4.00;99.90;;;;;;5074005;28;20063;-71
2023/03/05 00:19:32;;;;;;;7.05;1.52;;;3.90;99.90;;;;;;5073045;28;20040;-72
2023/03/05 00:21:58;;;;;;;3.08;1.15;;;3.90;99.90;;;;;;5073941;28;20036;-72
2023/03/05 00:24:23;;;;;;;5.13;1.17;;;4.00;99.90;;;;;;5073410;28;20037;-72
2023/03/05 00:26:49;;;;;;;6.32;1.33;;;3.80;99.90;;;;;;5074033;28;20033;-71
2023/03/05 00:29:18;;;;;;;7.45;1.33;;;3.90;99.90;;;;;;5074011;28;20044;-71
2023/03/05 00:31:44;;;;;;;9.00;1.30;;;3.90;99.90;;;;;;5055730;28;20040;-72
2023/03/05 00:34:13;;;;;;;7.53;1.50;;;3.90;99.90;;;;;;5055516;28;20055;-72
2023/03/05 00:36:50;;;;;;;6.10;1.58;;;3.90;99.90;;;;;;5073715;28;20044;-71
2023/03/05 00:39:16;;;;;;;5.38;1.35;;;3.90;99.90;;;;;;5055935;28;20097;-72
2023/03/05 00:41:42;;;;;;;8.93;1.35;;;3.90;99.90;;;;;;5055645;28;20517;-72
2023/03/05 00:44:08;;;;;;;6.30;1.30;;;3.80;99.90;;;;;;5055590;28;20075;-71
2023/03/05 00:46:34;;;;;;;5.53;1.30;;;3.80;99.90;;;;;;5055607;28;20041;-71
2023/03/05 00:48:59;;;;;;;4.80;1.55;;;3.80;99.90;;;;;;5038782;28;20139;-71
2023/03/05 00:51:26;;;;;;;5.45;1.20;;;3.80;99.90;;;;;;5073209;28;20049;-71
2023/03/05 00:53:51;;;;;;;7.13;1.55;;;3.90;99.90;;;;;;5073291;28;20062;-71
2023/03/05 00:56:17;;;;;;;3.83;1.60;;;3.90;99.90;;;;;;5073490;28;20044;-71
2023/03/05 00:58:43;;;;;;;7.78;1.40;;;3.80;99.90;;;;;;5073396;28;20081;-71
2023/03/05 01:01:08;;;;;;;2.28;1.00;;;3.80;99.90;;;;;;5073125;28;20040;-71
2023/03/05 01:03:35;;;;;;;9.23;1.42;;;3.90;99.90;;;;;;5054915;28;20039;-71
2023/03/05 01:06:03;;;;;;;4.75;1.92;;;3.90;99.90;;;;;;5073119;28;20033;-71
2023/03/05 01:08:28;;;;;;;4.82;1.20;;;3.90;99.90;;;;;;5073288;28;20037;-72
2023/03/05 01:10:54;;;;;;;5.45;1.92;;;3.80;99.90;;;;;;5073088;28;20047;-72
2023/03/05 01:13:19;;;;;;;7.10;1.40;;;3.90;99.90;;;;;;5054802;28;20448;-71
2023/03/05 01:15:47;;;;;;;3.10;1.17;;;3.90;99.90;;;;;;5055019;28;20040;-72
2023/03/05 01:18:13;;;;;;;5.82;1.75;;;3.70;99.90;;;;;;5054958;28;20119;-72
2023/03/05 01:20:39;;;;;;;9.38;2.97;;;3.70;99.90;;;;;;5072638;28;20040;-72
2023/03/05 01:23:05;;;;;;;8.43;1.73;;;3.80;99.90;;;;;;5072662;28;20047;-71
2023/03/05 01:25:30;;;;;;;4.30;1.55;;;3.80;99.90;;;;;;5072913;28;20036;-71
2023/03/05 01:27:56;;;;;;;6.13;1.67;;;3.70;99.90;;;;;;5072794;28;20037;-72
2023/03/05 01:30:21;;;;;;;7.43;1.23;;;3.70;99.90;;;;;;5072536;28;20072;-71
2023/03/05 01:32:47;;;;;;;5.20;1.75;;;3.90;99.90;;;;;;5054502;28;20496;-72
2023/03/05 01:35:19;;;;;;;4.88;1.17;;;3.90;99.90;;;;;;5072293;28;20044;-71
2023/03/05 01:37:45;;;;;;;5.85;1.00;;;3.80;99.90;;;;;;5072722;28;20048;-71
2023/03/05 01:40:12;;;;;;;8.88;2.25;;;3.80;99.90;;;;;;5072440;28;20103;-71
2023/03/05 01:42:38;;;;;;;5.53;1.38;;;3.80;99.90;;;;;;5054725;28;20049;-72
2023/03/05 01:45:06;;;;;;;4.47;1.73;;;3.90;99.90;;;;;;5072119;28;20514;-72
2023/03/05 01:47:31;;;;;;;5.07;1.40;;;3.90;99.90;;;;;;5054307;28;20128;-72
2023/03/05 01:49:57;;;;;;;3.38;1.17;;;3.80;99.90;;;;;;5072169;28;20119;-72
2023/03/05 01:52:25;;;;;;;6.55;1.20;;;3.80;99.90;;;;;;5054369;28;20045;-72
2023/03/05 01:54:57;;;;;;;3.33;1.38;;;3.90;99.90;;;;;;5054199;28;20044;-71
2023/03/05 01:57:32;;;;;;;6.20;1.00;;;3.90;99.90;;;;;;5072253;28;20112;-71
2023/03/05 02:00:02;;;;;;;4.00;0.90;;;4.00;99.90;;;;;;5072045;28;20114;-71
2023/03/05 02:02:28;;;;;;;7.20;1.55;;;4.10;99.90;;;;;;5054264;28;20040;-71
2023/03/05 02:04:59;;;;;;;4.95;2.03;;;4.00;99.90;;;;;;5071934;28;20081;-71
2023/03/05 02:07:25;;;;;;;5.00;1.17;;;3.90;99.90;;;;;;5054136;28;20040;-71
2023/03/05 02:09:50;;;;;;;6.05;1.15;;;3.90;99.90;;;;;;5071915;28;20040;-71
2023/03/05 02:12:17;;;;;;;6.63;1.13;;;4.00;99.90;;;;;;5071933;28;20097;-71
2023/03/05 02:14:45;;;;;;;3.83;1.20;;;4.00;99.90;;;;;;5071549;28;20119;-71
2023/03/05 02:17:11;;;;;;;7.03;2.20;;;4.00;99.90;;;;;;5064509;28;20040;-71
2023/03/05 02:19:54;;;;;;;3.78;1.00;;;3.80;99.90;;;;;;5071548;28;20094;-72
2023/03/05 02:22:22;;;;;;;4.82;2.22;;;3.90;99.90;;;;;;5066276;28;20067;-72
2023/03/05 02:24:48;;;;;;;4.22;1.17;;;3.80;99.90;;;;;;5053449;28;20032;-72
2023/03/05 02:27:15;;;;;;;6.20;1.65;;;3.90;99.90;;;;;;5071695;28;20068;-72
2023/03/05 02:29:44;;;;;;;6.30;1.17;;;3.80;99.90;;;;;;5071573;28;20396;-71
2023/03/05 02:32:10;;;;;;;7.65;1.88;;;3.80;99.90;;;;;;5037341;28;20573;-71
2023/03/05 02:34:36;;;;;;;10.45;1.90;;;3.80;99.90;;;;;;5071513;28;20127;-72
2023/03/05 02:37:03;;;;;;;5.53;1.63;;;3.70;99.90;;;;;;5071744;28;20112;-71
2023/03/05 02:39:32;;;;;;;5.38;1.55;;;3.70;99.90;;;;;;5071522;28;20044;-71
2023/03/05 02:41:58;;;;;;;6.88;1.30;;;3.70;99.90;;;;;;5071425;28;20543;-71
2023/03/05 02:44:23;;;;;;;4.88;1.10;;;3.60;99.90;;;;;;5070748;28;20111;-71
2023/03/05 02:46:49;;;;;;;3.72;1.38;;;3.70;99.90;;;;;;5071701;28;20400;-71
2023/03/05 02:49:14;;;;;;;4.25;1.55;;;3.50;99.90;;;;;;5071639;28;20040;-71
2023/03/05 02:51:40;;;;;;;7.93;2.70;;;3.50;99.90;;;;;;5071524;28;20507;-71
2023/03/05 02:54:06;;;;;;;5.32;1.05;;;3.50;99.90;;;;;;5071184;28;20559;-71
2023/03/05 02:56:31;;;;;;;4.45;1.20;;;3.60;99.90;;;;;;5071398;28;20112;-71
2023/03/05 02:58:57;;;;;;;5.35;2.03;;;3.60;99.90;;;;;;5053459;28;20442;-71
2023/03/05 03:01:23;;;;;;;4.72;1.33;;;3.60;99.90;;;;;;5071447;28;20086;-71
2023/03/05 03:03:48;;;;;;;4.57;1.20;;;3.50;99.90;;;;;;5071282;28;20684;-71
2023/03/05 03:06:14;;;;;;;5.47;1.58;;;3.50;99.90;;;;;;5071475;28;20043;-71
2023/03/05 03:08:39;;;;;;;4.95;1.63;;;3.50;99.90;;;;;;5071395;28;20036;-71
2023/03/05 03:11:07;;;;;;;4.63;1.30;;;3.50;99.90;;;;;;5071222;28;20040;-71
2023/03/05 03:13:33;;;;;;;4.40;0.93;;;3.40;99.90;;;;;;5071214;28;20474;-72
2023/03/05 03:16:08;;;;;;;4.68;1.42;;;3.40;99.90;;;;;;5053360;28;20072;-72
2023/03/05 03:18:34;;;;;;;3.05;1.30;;;3.50;99.90;;;;;;5053393;28;20090;-72
2023/03/05 03:21:00;;;;;;;2.83;1.30;;;3.50;99.90;;;;;;5071174;28;20116;-71
2023/03/05 03:23:26;;;;;;;4.10;1.30;;;3.30;99.90;;;;;;5070884;28;20058;-71
2023/03/05 03:25:51;;;;;;;2.90;1.63;;;3.50;99.90;;;;;;5071398;28;20036;-71
2023/03/05 03:28:17;;;;;;;5.57;1.52;;;3.40;99.90;;;;;;5071328;28;20114;-71
2023/03/05 03:30:43;;;;;;;6.28;1.35;;;3.50;99.90;;;;;;5070924;28;20078;-71
2023/03/05 03:33:09;;;;;;;4.88;1.13;;;3.30;99.90;;;;;;5052980;28;20083;-71
2023/03/05 03:35:34;;;;;;;4.85;1.30;;;3.40;99.90;;;;;;5071078;28;20491;-72
2023/03/05 03:38:00;;;;;;;9.20;2.25;;;3.50;99.90;;;;;;5053111;28;20040;-71
2023/03/05 03:40:25;;;;;;;3.45;1.15;;;3.50;99.90;;;;;;5070868;28;20094;-72
2023/03/05 03:42:52;;;;;;;4.68;1.17;;;3.50;99.90;;;;;;5052870;28;20032;-71
2023/03/05 03:45:17;;;;;;;6.82;1.48;;;3.40;99.90;;;;;;5052899;28;20131;-71
2023/03/05 03:47:43;;;;;;;10.55;1.58;;;3.40;99.90;;;;;;5053367;28;20075;-72
2023/03/05 03:50:09;;;;;;;4.68;1.08;;;3.40;99.90;;;;;;5070865;28;20070;-72
2023/03/05 03:52:35;;;;;;;5.57;1.42;;;3.30;99.90;;;;;;5052902;28;20065;-72
2023/03/05 03:55:00;;;;;;;3.65;1.15;;;3.30;99.90;;;;;;5036773;28;20776;-71
2023/03/05 03:57:29;;;;;;;5.97;1.30;;;3.20;99.90;;;;;;5056815;28;20084;-71
2023/03/05 03:59:55;;;;;;;3.75;1.45;;;3.30;99.90;;;;;;5074471;28;20043;-71
2023/03/05 04:02:21;;;;;;;2.88;1.08;;;3.30;99.90;;;;;;5074499;28;20036;-71
2023/03/05 04:04:47;;;;;;;4.43;1.10;;;3.30;99.90;;;;;;5056034;28;20051;-71
2023/03/05 04:07:12;;;;;;;6.35;1.70;;;3.30;99.90;;;;;;5074228;28;20036;-71
2023/03/05 04:09:38;;;;;;;5.18;1.50;;;3.30;99.90;;;;;;5056551;28;20515;-72
2023/03/05 04:12:04;;;;;;;3.90;0.98;;;3.30;99.90;;;;;;5039896;28;20127;-71
2023/03/05 04:14:29;;;;;;;4.43;1.25;;;3.20;99.90;;;;;;5055847;28;20041;-72
2023/03/05 04:16:55;;;;;;;7.28;1.60;;;3.20;99.90;;;;;;5056254;28;20579;-72
2023/03/05 04:19:20;;;;;;;7.47;1.75;;;3.20;99.90;;;;;;5056321;28;20037;-72
2023/03/05 04:21:46;;;;;;;5.20;1.58;;;3.40;99.90;;;;;;5055858;28;20059;-72
2023/03/05 04:24:12;;;;;;;2.80;1.02;;;3.20;99.90;;;;;;5073604;28;20523;-72
2023/03/05 04:26:37;;;;;;;2.47;1.13;;;3.20;99.90;;;;;;5056020;28;20040;-72
2023/03/05 04:29:03;;;;;;;3.60;1.50;;;3.30;99.90;;;;;;5055878;28;20041;-72
2023/03/05 04:31:28;;;;;;;3.70;2.25;;;3.30;99.90;;;;;;5073744;28;20055;-72
2023/03/05 04:33:54;;;;;;;5.80;1.33;;;3.40;99.90;;;;;;5073499;28;20427;-72
2023/03/05 04:36:20;;;;;;;5.82;1.67;;;3.20;99.90;;;;;;5073756;28;20515;-71
2023/03/05 04:38:46;;;;;;;4.10;1.10;;;3.20;99.90;;;;;;5073890;28;20036;-71
2023/03/05 04:41:11;;;;;;;12.55;2.05;;;3.10;99.90;;;;;;5073676;28;20090;-71
2023/03/05 04:43:37;;;;;;;3.53;2.75;;;3.30;99.90;;;;;;5073327;28;20033;-71
2023/03/05 04:46:02;;;;;;;5.05;1.63;;;3.30;99.90;;;;;;5073637;28;20036;-71
2023/03/05 04:48:28;;;;;;;6.43;1.73;;;3.10;99.90;;;;;;5073576;28;20040;-71
2023/03/05 04:50:53;;;;;;;2.95;1.25;;;3.20;99.90;;;;;;5073329;28;20513;-71
2023/03/05 04:53:19;;;;;;;5.85;1.42;;;3.10;99.90;;;;;;5073423;28;20043;-71
2023/03/05 04:55:44;;;;;;;4.53;1.02;;;3.20;99.90;;;;;;5073631;28;20052;-71
2023/03/05 04:58:10;;;;;;;4.60;1.10;;;3.20;99.90;;;;;;5073312;28;20047;-71
2023/03/05 05:00:36;;;;;;;3.10;1.02;;;3.20;99.90;;;;;;5073152;28;20406;-71
2023/03/05 05:03:01;;;;;;;7.18;1.17;;;3.10;99.90;;;;;;5073086;28;20521;-71
2023/03/05 05:05:27;;;;;;;3.65;3.33;;;3.10;99.90;;;;;;5072883;28;20036;-71
2023/03/05 05:07:57;;;;;;;4.82;1.88;;;3.20;99.90;;;;;;5072933;28;20534;-72
2023/03/05 05:10:24;;;;;;;8.10;2.38;;;3.20;99.90;;;;;;5073232;28;20411;-71
2023/03/05 05:12:49;;;;;;;5.90;1.50;;;3.00;99.90;;;;;;5072943;28;20048;-72
2023/03/05 05:15:15;;;;;;;4.20;1.65;;;3.20;99.90;;;;;;5072914;28;20093;-71
2023/03/05 05:17:41;;;;;;;7.97;1.30;;;3.10;99.90;;;;;;5072897;28;20549;-71
2023/03/05 05:20:09;;;;;;;3.17;1.20;;;3.20;99.90;;;;;;5054702;28;20036;-71
2023/03/05 05:22:36;;;;;;;2.70;1.10;;;3.20;99.90;;;;;;5054881;28;20519;-72
2023/03/05 05:25:02;;;;;;;4.00;1.50;;;3.10;99.90;;;;;;5072520;28;20484;-72
2023/03/05 05:27:28;;;;;;;2.40;1.33;;;3.10;99.90;;;;;;5072799;28;20442;-72
2023/03/05 05:29:53;;;;;;;5.47;1.48;;;3.10;99.90;;;;;;5072566;28;20047;-72
2023/03/05 05:32:21;;;;;;;8.10;3.20;;;3.00;99.90;;;;;;5072666;28;20129;-72
2023/03/05 05:34:47;;;;;;;6.05;1.38;;;3.10;99.90;;;;;;5072225;28;20040;-72
2023/03/05 05:37:13;;;;;;;4.47;1.20;;;3.20;99.90;;;;;;5072749;28;20094;-72
2023/03/05 05:39:38;;;;;;;7.45;1.48;;;3.20;99.90;;;;;;5072483;28;20079;-72
2023/03/05 05:42:04;;;;;;;3.97;1.60;;;3.10;99.90;;;;;;5054645;28;20064;-72
2023/03/05 05:44:30;;;;;;;6.97;1.35;;;3.10;99.90;;;;;;5072017;28;20091;-72
2023/03/05 05:46:55;;;;;;;5.07;1.20;;;3.10;99.90;;;;;;5072413;28;20507;-71
2023/03/05 05:49:21;;;;;;;4.65;1.38;;;3.20;99.90;;;;;;5072284;28;20070;-71
2023/03/05 05:51:46;;;;;;;4.88;1.45;;;3.20;99.90;;;;;;5054387;28;20403;-71
2023/03/05 05:54:13;;;;;;;7.03;1.70;;;3.10;99.90;;;;;;5072026;28;20044;-71
2023/03/05 05:56:40;;;;;;;5.97;1.20;;;3.20;99.90;;;;;;5072276;28;20044;-71
2023/03/05 05:59:05;;;;;;;9.32;1.73;;;3.10;99.90;;;;;;5072065;28;20051;-71
2023/03/05 06:01:32;;;;;;;6.47;1.33;;;3.20;99.90;;;;;;5072067;28;20044;-72
2023/03/05 06:03:58;;;;;;;9.23;1.27;;;3.00;99.90;;;;;;5071619;28;20571;-72
2023/03/05 06:06:25;;;;;;;5.45;1.00;;;3.00;99.90;;;;;;5072204;28;20044;-72
2023/03/05 06:08:51;;;;;;;3.50;1.00;;;3.10;99.90;;;;;;5054088;28;20041;-71
2023/03/05 06:11:18;;;;;;;5.25;2.65;;;3.10;99.90;;;;;;5053970;28;20040;-71
2023/03/05 06:13:43;;;;;;;4.95;1.17;;;2.90;99.90;;;;;;5053988;28;20112;-71
2023/03/05 06:16:15;;;;;;;4.88;1.15;;;3.00;99.90;;;;;;5071941;28;20498;-71
2023/03/05 06:18:41;;;;;;;5.07;1.30;;;2.90;99.90;;;;;;5053298;28;20044;-72
2023/03/05 06:21:10;;;;;;;1.27;0.90;;;2.80;99.90;;;;;;5071797;28;20059;-72
2023/03/05 06:23:35;;;;;;;4.28;2.25;;;2.90;99.90;;;;;;5053724;28;20052;-72
2023/03/05 06:26:03;;;;;;;2.63;0.73;;;3.00;99.90;;;;;;5071737;28;20029;-72
2023/03/05 06:28:29;;;;;;;3.67;1.30;;;2.80;99.90;;;;;;5071730;28;20081;-72
2023/03/05 06:31:09;;;;;;;6.88;1.27;;;3.00;99.90;;;;;;5071478;28;20123;-71
2023/03/05 06:33:35;;;;;;;4.90;1.58;;;2.90;99.90;;;;;;5071578;28;20082;-72
2023/03/05 06:36:12;;;;;;;3.20;1.17;;;3.00;99.90;;;;;;5071644;28;20119;-71
2023/03/05 06:38:38;;;;;;;6.13;1.48;;;3.00;99.90;;;;;;5071651;28;20411;-71
2023/03/05 06:41:08;;;;;;;5.80;1.20;;;2.90;99.90;;;;;;5071589;28;20115;-72
2023/03/05 06:43:34;;;;;;;5.78;1.10;;;2.90;99.90;;;;;;5071242;28;20509;-72
2023/03/05 06:46:05;;;;;;;6.13;0.93;;;2.80;99.90;;;;;;5071819;28;20043;-71
2023/03/05 06:48:31;;;;;;;4.22;0.70;;;2.80;99.90;;;;;;5071737;28;20037;-71
2023/03/05 06:50:56;;;;;;;3.53;0.95;;;2.80;99.90;;;;;;5071472;28;20379;-72
2023/03/05 06:53:23;;;;;;;2.83;0.80;;;2.80;99.90;;;;;;5053322;28;20040;-72
2023/03/05 06:55:49;;;;;;;5.35;0.85;;;2.90;99.90;;;;;;5071529;28;20036;-72
2023/03/05 06:58:15;;;;;;;3.78;1.40;;;2.90;99.90;;;;;;5054039;28;20698;-71
2023/03/05 07:00:42;;;;;;;2.20;0.77;;;3.10;99.90;;;;;;5053275;28;20048;-71
2023/03/05 07:03:08;;;;;;;4.72;1.08;;;3.00;99.90;;;;;;5053167;28;20071;-72
2023/03/05 07:05:40;;;;;;;2.17;0.80;;;3.10;99.90;;;;;;5071583;28;20044;-72
2023/03/05 07:08:06;;;;;;;4.50;0.85;;;3.10;99.90;;;;;;5053727;28;20392;-72
2023/03/05 07:10:35;;;;;;;2.75;0.80;;;3.10;99.90;;;;;;5071227;28;20074;-72
2023/03/05 07:13:01;;;;;;;2.33;0.73;;;3.10;99.90;;;;;;5071166;28;20052;-72
2023/03/05 07:15:26;;;;;;;2.00;0.70;;;3.20;99.90;;;;;;5071483;28;20041;-72
2023/03/05 07:17:52;;;;;;;1.27;0.70;;;3.10;99.90;;;;;;5071431;28;20032;-73
2023/03/05 07:20:17;;;;;;;6.05;0.73;;;3.20;99.90;;;;;;5071171;28;20499;-72
2023/03/05 07:22:43;;;;;;;4.40;1.02;;;3.20;99.90;;;;;;5053285;28;20029;-71
2023/03/05 07:25:09;;;;;;;6.47;1.02;;;3.30;99.90;;;;;;5070927;28;20407;-72
2023/03/05 07:27:36;;;;;;;3.58;1.05;;;3.20;99.90;;;;;;5086791;28;20037;-72
2023/03/05 07:30:02;;;;;;;4.90;1.05;;;3.40;99.90;;;;;;5055490;28;20076;-72
2023/03/05 07:32:28;;;;;;;7.10;1.55;;;3.30;99.90;;;;;;5075153;28;20060;-71
2023/03/05 07:34:54;;;;;;;4.55;1.27;;;3.40;99.90;;;;;;5074718;28;20040;-71
2023/03/05 07:37:19;;;;;;;6.43;1.67;;;3.40;99.90;;;;;;5074820;28;20066;-71
2023/03/05 07:39:45;;;;;;;3.92;0.90;;;3.40;99.90;;;;;;5056659;28;20098;-71
2023/03/05 07:42:10;;;;;;;4.07;1.25;;;3.60;99.90;;;;;;5075049;28;20036;-71
2023/03/05 07:44:37;;;;;;;4.18;1.55;;;3.50;99.90;;;;;;5056521;28;20041;-72
2023/03/05 07:47:04;;;;;;;8.57;3.10;;;3.70;99.90;;;;;;5056943;28;20036;-72
2023/03/05 07:49:29;;;;;;;4.82;1.25;;;3.80;99.90;;;;;;5074774;28;20032;-71
2023/03/05 07:51:55;;;;;;;8.05;1.40;;;3.90;99.90;;;;;;5074570;28;20028;-71
2023/03/05 07:54:20;;;;;;;3.10;1.10;;;4.10;99.90;;;;;;5056434;28;20491;-71
2023/03/05 07:56:47;;;;;;;4.05;1.73;;;4.10;99.90;;;;;;5056625;28;20131;-71
2023/03/05 07:59:13;;;;;;;3.38;1.38;;;4.30;99.90;;;;;;5074725;28;20044;-72
2023/03/05 08:01:38;;;;;;;3.45;1.20;;;4.50;99.90;;;;;;5055900;28;20105;-71
2023/03/05 08:04:05;;;;;;;7.15;1.30;;;4.70;99.90;;;;;;5074051;28;20037;-71
2023/03/05 08:06:31;;;;;;;5.15;1.27;;;4.90;99.90;;;;;;5074423;28;20110;-71
2023/03/05 08:08:57;;;;;;;7.35;1.38;;;4.90;99.90;;;;;;5073918;28;20503;-71
2023/03/05 08:11:23;;;;;;;8.98;1.63;;;5.00;99.90;;;;;;5070755;28;20111;-72
2023/03/05 08:13:48;;;;;;;4.00;0.98;;;5.10;99.90;;;;;;5073369;28;20133;-72
2023/03/05 08:16:17;;;;;;;5.07;1.05;;;5.20;99.90;;;;;;5073699;28;20445;-72
2023/03/05 08:18:43;;;;;;;3.80;0.70;;;5.20;99.90;;;;;;5050931;28;20055;-71
2023/03/05 08:21:20;;;;;;;5.88;1.40;;;5.30;99.90;;;;;;5037341;28;20487;-71
2023/03/05 08:23:46;;;;;;;8.20;1.10;;;5.20;99.90;;;;;;5062444;28;20043;-71
2023/03/05 08:26:13;;;;;;;3.22;0.98;;;5.20;99.90;;;;;;5065910;28;20037;-72
2023/03/05 08:28:39;;;;;;;4.60;1.25;;;5.20;99.90;;;;;;5067834;28;20116;-72
2023/03/05 08:31:08;;;;;;;5.32;1.63;;;5.30;99.90;;;;;;5073489;28;20127;-70
2023/03/05 08:33:34;;;;;;;2.15;0.65;;;5.30;99.90;;;;;;5073382;28;20051;-71
2023/03/05 08:36:00;;;;;;;9.30;1.35;;;5.40;99.90;;;;;;5059147;28;20036;-70
2023/03/05 08:38:25;;;;;;;13.73;1.60;;;5.50;99.90;;;;;;5055873;28;20399;-71
2023/03/05 08:40:51;;;;;;;4.10;1.00;;;5.50;99.90;;;;;;5054586;28;20495;-71
2023/03/05 08:43:17;;;;;;;10.38;1.60;;;5.80;99.90;;;;;;5055179;28;20484;-71
2023/03/05 08:45:42;;;;;;;7.35;1.52;;;5.80;99.90;;;;;;5038684;28;20498;-71
2023/03/05 08:48:08;;;;;;;5.38;1.30;;;5.80;99.90;;;;;;5073455;28;20064;-71
2023/03/05 08:50:35;;;;;;;9.23;1.40;;;6.10;99.90;;;;;;5073043;28;20555;-71
2023/03/05 08:53:01;;;;;;;8.27;1.90;;;6.10;99.90;;;;;;5058841;28;20079;-71
2023/03/05 08:55:27;;;;;;;7.70;1.38;;;6.10;99.90;;;;;;5073050;28;20072;-71
2023/03/05 08:57:52;;;;;;;6.50;1.35;;;6.10;99.90;;;;;;5073205;28;20032;-71
2023/03/05 09:00:18;;;;;;;7.40;1.48;;;6.30;99.90;;;;;;5055063;28;20124;-71
2023/03/05 09:02:44;;;;;;;8.70;1.88;;;6.20;99.90;;;;;;5073100;28;20089;-71
2023/03/05 09:05:10;;;;;;;10.75;2.10;;;6.20;99.90;;;;;;5037651;28;20041;-71
2023/03/05 09:07:36;;;;;;;6.20;1.20;;;6.20;99.90;;;;;;5065063;28;20037;-72
2023/03/05 09:10:03;;;;;;;7.43;1.33;;;6.00;99.90;;;;;;5072662;28;20044;-71
2023/03/05 09:12:29;;;;;;;3.25;0.90;;;6.00;99.90;;;;;;5073035;28;20055;-72
2023/03/05 09:14:55;;;;;;;9.25;1.20;;;6.20;99.90;;;;;;5054742;28;20032;-71
2023/03/05 09:17:21;;;;;;;9.82;1.85;;;6.10;99.90;;;;;;5034986;28;20438;-70
2023/03/05 09:19:47;;;;;;;8.60;1.50;;;6.00;99.90;;;;;;5066659;28;20044;-70
2023/03/05 09:22:12;;;;;;;3.85;1.42;;;6.10;99.90;;;;;;5072817;28;20103;-71
2023/03/05 09:24:38;;;;;;;3.28;1.02;;;6.20;99.90;;;;;;5054385;28;20045;-70
2023/03/05 09:27:04;;;;;;;4.95;1.20;;;6.20;99.90;;;;;;5058417;28;20028;-70
2023/03/05 09:29:30;;;;;;;8.55;1.20;;;6.40;99.90;;;;;;5072581;28;20040;-70
2023/03/05 09:31:55;;;;;;;4.57;1.38;;;6.40;99.90;;;;;;5072111;28;20090;-71
2023/03/05 09:34:22;;;;;;;3.35;0.80;;;6.20;99.90;;;;;;5072102;28;20040;-71
2023/03/05 09:36:48;;;;;;;2.88;1.23;;;6.20;99.90;;;;;;5054831;28;20043;-71
2023/03/05 09:39:15;;;;;;;3.55;1.10;;;6.10;99.90;;;;;;5054607;28;20032;-70
2023/03/05 09:42:08;;;;;;;3.42;0.95;;;6.10;99.90;;;;;;5072288;28;20389;-71
2023/03/05 09:44:57;;;;;;;3.35;0.93;;;6.10;99.90;;;;;;5041366;28;20492;-71
2023/03/05 09:47:32;;;;;;;7.10;1.88;;;6.20;99.90;;;;;;5072063;28;20070;-70
2023/03/05 09:50:00;;;;;;;3.25;1.23;;;6.10;99.90;;;;;;5054208;28;20049;-71
2023/03/05 09:52:52;;;;;;;4.93;0.90;;;6.10;99.90;;;;;;5071936;28;20411;-71
2023/03/05 09:55:41;;;;;;;4.07;0.70;;;6.20;99.90;;;;;;5071754;28;20111;-71
2023/03/05 09:58:14;;;;;;;3.30;0.70;;;6.10;99.90;;;;;;5072391;28;20044;-71
2023/03/05 10:00:44;;;;;;;3.30;0.77;;;6.30;99.90;;;;;;5071828;28;20491;-70
2023/03/05 10:03:26;;;;;;;4.95;0.80;;;6.30;99.90;;;;;;5071590;28;20040;-70
2023/03/05 10:06:11;;;;;;;7.70;1.25;;;6.30;99.90;;;;;;5071696;28;20044;-71
2023/03/05 10:09:13;;;;;;;2.03;0.70;;;6.40;99.90;;;;;;5071913;28;20044;-71
2023/03/05 10:11:47;;;;;;;2.65;1.00;;;6.30;99.90;;;;;;5054827;28;20044;-71
2023/03/05 10:14:22;;;;;;;2.83;0.90;;;6.40;99.90;;;;;;5053542;28;20048;-71
2023/03/05 10:17:04;;;;;;;2.58;0.80;;;6.40;99.90;;;;;;5058473;28;20411;-72
2023/03/05 10:19:39;;;;;;;4.40;1.00;;;6.50;99.90;;;;;;5053503;28;20044;-71
2023/03/05 10:23:01;;;;;;;3.88;0.85;;;6.50;99.90;;;;;;5071757;28;20040;-71
2023/03/05 10:25:42;;;;;;;8.57;1.10;;;6.40;99.90;;;;;;4969970;28;20042;-71
2023/03/05 10:28:19;;;;;;;4.97;1.10;;;6.20;99.90;;;;;;4970718;28;20047;-71
2023/03/05 10:31:25;;;;;;;4.90;0.98;;;6.30;99.90;;;;;;5037218;28;20507;-71
2023/03/05 10:34:20;;;;;;;5.05;1.48;;;6.00;99.90;;;;;;5037047;28;20136;-71
2023/03/05 10:37:17;;;;;;;7.20;1.35;;;6.00;99.90;;;;;;5033646;28;20110;-71
2023/03/05 10:39:50;;;;;;;7.72;1.42;;;6.00;99.90;;;;;;5034207;28;20045;-71
2023/03/05 10:42:29;;;;;;;9.73;1.48;;;6.20;99.90;;;;;;5051677;28;20079;-71
2023/03/05 10:45:00;;;;;;;6.40;1.20;;;6.20;99.90;;;;;;5051366;28;20037;-71
2023/03/05 10:47:28;;;;;;;9.15;2.33;;;6.20;99.90;;;;;;5051510;28;20041;-70
2023/03/05 10:49:56;;;;;;;4.35;1.10;;;6.20;99.90;;;;;;5033747;28;20068;-70
2023/03/05 10:52:29;;;;;;;3.15;1.17;;;6.20;99.90;;;;;;5051508;28;20403;-70
2023/03/05 10:54:55;;;;;;;5.43;0.85;;;6.20;99.90;;;;;;5051287;28;20057;-71
2023/03/05 10:57:23;;;;;;;4.30;1.10;;;6.50;99.90;;;;;;5051468;28;20060;-71
2023/03/05 10:59:53;;;;;;;10.88;1.27;;;6.70;99.90;;;;;;5051193;28;20098;-71
2023/03/05 11:02:20;;;;;;;3.42;1.05;;;6.80;99.90;;;;;;5033586;28;20427;-71
2023/03/05 11:04:48;;;;;;;7.15;2.65;;;6.80;99.90;;;;;;5053237;28;20033;-70
2023/03/05 11:07:13;;;;;;;7.72;1.17;;;6.80;99.90;;;;;;5055586;28;20041;-72
2023/03/05 11:10:02;;;;;;;6.30;1.42;;;6.80;99.90;;;;;;5046890;28;20043;-71
2023/03/05 11:12:34;;;;;;;4.70;1.33;;;6.80;99.90;;;;;;5073675;28;20029;-70
2023/03/05 11:15:08;;;;;;;5.38;0.93;;;6.90;99.90;;;;;;5072327;28;20041;-71
2023/03/05 11:17:46;;;;;;;3.40;0.70;;;6.80;99.90;;;;;;5056788;28;20037;-69
2023/03/05 11:20:33;;;;;;;5.47;0.82;;;6.90;99.90;;;;;;5074651;28;20072;-71
2023/03/05 11:23:13;;;;;;;7.90;1.13;;;7.00;99.90;;;;;;5072238;28;20037;-71
2023/03/05 11:26:00;;;;;;;4.93;1.00;;;6.90;99.90;;;;;;5072346;28;20182;-70
2023/03/05 11:28:32;;;;;;;3.28;0.73;;;7.00;99.90;;;;;;5073519;28;20099;-70
2023/03/05 11:31:22;;;;;;;1.80;0.73;;;7.10;99.90;;;;;;5071853;28;20044;-71
2023/03/05 11:34:00;;;;;;;3.05;0.73;;;7.20;99.90;;;;;;5073103;28;20079;-71
2023/03/05 11:36:41;;;;;;;3.42;0.98;;;7.20;99.90;;;;;;5073111;28;20407;-71
2023/03/05 11:39:06;;;;;;;4.40;0.90;;;7.40;99.90;;;;;;5073038;28;20467;-70
2023/03/05 11:41:40;;;;;;;4.43;1.00;;;7.40;99.90;;;;;;5072405;28;20072;-70
2023/03/05 11:44:13;;;;;;;5.28;1.23;;;7.30;99.90;;;;;;5066175;28;20028;-70
2023/03/05 11:46:46;;;;;;;7.75;1.65;;;7.30;99.90;;;;;;5071611;28;20041;-70
2023/03/05 11:49:17;;;;;;;5.57;1.08;;;7.10;99.90;;;;;;5074324;28;20036;-70
2023/03/05 11:51:58;;;;;;;6.13;0.75;;;7.00;99.90;;;;;;5072104;28;20407;-70
2023/03/05 11:54:32;;;;;;;2.78;0.85;;;7.00;99.90;;;;;;5072246;28;20041;-71
2023/03/05 11:57:01;;;;;;;6.05;1.15;;;7.00;99.90;;;;;;5074711;28;20040;-71
2023/03/05 11:59:32;;;;;;;4.78;1.35;;;7.10;99.90;;;;;;5074551;28;20060;-71
2023/03/05 12:01:58;;;;;;;3.60;1.23;;;7.20;99.90;;;;;;5074290;28;20127;-71
2023/03/05 12:04:24;;;;;;;3.42;1.00;;;7.30;99.90;;;;;;5056104;28;20036;-71
2023/03/05 12:06:56;;;;;;;6.82;0.70;;;7.30;99.90;;;;;;5074520;28;20040;-71
2023/03/05 12:09:46;;;;;;;2.97;0.80;;;7.20;99.90;;;;;;5074435;28;20036;-71
2023/03/05 12:12:20;;;;;;;3.80;0.77;;;7.20;99.90;;;;;;5074318;28;20036;-71
2023/03/05 12:14:55;;;;;;;5.72;0.70;;;7.10;99.90;;;;;;5073748;28;20047;-71
2023/03/05 12:17:30;;;;;;;4.70;1.15;;;7.20;99.90;;;;;;5073430;28;20033;-71
2023/03/05 12:20:22;;;;;;;5.15;1.05;;;7.20;99.90;;;;;;5074196;28;20041;-71
2023/03/05 12:22:48;;;;;;;3.72;0.70;;;7.10;99.90;;;;;;5074035;28;20596;-71
2023/03/05 12:25:43;;;;;;;6.25;1.55;;;7.20;99.90;;;;;;5073687;28;20040;-70
2023/03/05 12:28:27;;;;;;;4.95;0.90;;;7.40;99.90;;;;;;5067047;28;20443;-71
2023/03/05 12:30:55;;;;;;;3.80;0.63;;;7.40;99.90;;;;;;5073833;28;20040;-71
2023/03/05 12:33:44;;;;;;;5.47;1.27;;;7.40;99.90;;;;;;5073552;28;20483;-71
2023/03/05 12:36:21;;;;;;;3.95;0.82;;;7.40;99.90;;;;;;5073950;28;20043;-71
2023/03/05 12:38:50;;;;;;;4.20;0.75;;;7.30;99.90;;;;;;5055934;28;20404;-71
2023/03/05 12:41:22;;;;;;;4.07;1.08;;;7.20;99.90;;;;;;5055651;28;20048;-71
2023/03/05 12:44:06;;;;;;;5.35;0.95;;;7.20;99.90;;;;;;5055353;28;20045;-71
2023/03/05 12:46:41;;;;;;;;;;;7.30;99.90;;;;;;5074133;28;20043;-71
2023/03/05 12:49:19;;;;;;;8.38;0.75;;;7.40;99.90;;;;;;5055520;28;20009;-70
2023/03/05 12:51:50;;;;;;;4.20;0.77;;;7.50;99.90;;;;;;5073530;28;20119;-71
2023/03/05 12:54:25;;;;;;;3.60;1.30;;;7.50;99.90;;;;;;5073028;28;20111;-71
2023/03/05 12:56:52;;;;;;;1.52;0.60;;;7.50;99.90;;;;;;5055425;28;20053;-71
2023/03/05 12:59:21;;;;;;;3.05;0.52;;;7.40;99.90;;;;;;5073443;28;20055;-71
2023/03/05 13:01:55;;;;;;;11.27;0.93;;;7.30;99.90;;;;;;5073107;28;20058;-71
2023/03/05 13:04:27;;;;;;;7.30;0.90;;;7.30;99.90;;;;;;5072819;28;20055;-71
2023/03/05 13:07:12;;;;;;;3.72;1.10;;;7.10;99.90;;;;;;5055159;28;20040;-71